AirNav   Air Wisconsin Up To $57,000 Bonus
 
 1593 users online  

SN34 Rucker Airport
Clearwater, Kansas, USA

GOING TO CLEARWATER?


FAA INFORMATION EFFECTIVE 15 JULY 2021

Location

FAA Identifier: SN34
Lat/Long: 37-34-30.0580N 097-29-31.1690W
37-34.500967N 097-29.519483W
37.5750161,-97.4919914
(estimated)
Elevation: 1300 ft. / 396 m (estimated)
Variation: 07E (1985)
From city: 4 miles N of CLEARWATER, KS
Time zone: UTC -5 (UTC -6 during Standard Time)
Zip code: 67026

Airport Operations

Airport use: Private use. Permission required prior to landing
Activation date: 04/1971
Control tower: no
ARTCC: KANSAS CITY CENTER
FSS: WICHITA FLIGHT SERVICE STATION
Attendance: UNATNDD
Wind indicator: no
Segmented circle: no

Airport Communications

WX ASOS at ICT (5 nm NE): PHONE 316-945-8022
WX AWOS-3PT at BEC (15 nm NE): 119.45 (316-515-7116)
WX AWOS-3 at EGT (16 nm S): 118.875 (620-326-2470)
WX ASOS at AAO (17 nm NE): 134.025 (316-636-2541)

Nearby radio navigation aids

VOR radial/distance  VOR name  Freq  Var
ICTr150/11.1WICHITA VORTAC113.8007E
HUTr136/32.9HUTCHINSON VOR/DME116.8004E

 
NDB name  Hdg/Dist  Freq  Var  ID
PICHE260/1.733204EIC .. -.-.

Airport Services

Runway Information

Runway 17/35

Dimensions: 2600 x 100 ft. / 792 x 30 m
Surface: turf
RUNWAY 17  RUNWAY 35
Traffic pattern: rightleft

Airport Ownership and Management from official FAA records

Ownership: Privately-owned
Owner: RUCKER FIELD ASSOCIATION
13149 WEST 63RD ST SOUTH
CLEARWATER, KS 67026
Phone (620) 545-7070
Manager: AARON TOBIAS
13149 WEST 63RD ST SOUTH
CLEARWATER, KS 67026
Phone (620) 545-7070

Airport Operational Statistics

Aircraft based on the field: 6
Single engine airplanes: 6
    

Additional Remarks

RY 35 272 FT RADIO TWR 1100 FT W OF NORTH END OF RY.
CTC ICT TWR FOR ADZYS, DUE TO CLOSE PROXIMITY TO CLASS C SFC ASP.
RWY 17- RP ONLY
FOR CD CTC WICHITA APCH AT 316-350-1520.

Instrument Procedures

There are no published instrument procedures at SN34.

Some nearby airports with instrument procedures:

KICT - Wichita Dwight D Eisenhower National Airport (5 nm NE)
KIAB - Mc Connell Air Force Base (11 nm E)
KCEA - Cessna Aircraft Field Airport (12 nm E)
KBEC - Beech Factory Airport (15 nm NE)
KEGT - Wellington Municipal Airport (16 nm S)
KAAO - Colonel James Jabara Airport (17 nm NE)
 
Loc | Ops | Rwys | IFR | FBO | Links
Com | Nav | Svcs | Stats | Notes
Area around SN34 (Rucker Airport)
 
Road maps at: MapQuest Bing Google
 
Aerial photo
No photo
 
Sectional chart

 
Airport distance calculator
Flying to Rucker Airport? Find the distance to fly.

From to SN34

Sunrise and sunset
Times for 05-Aug-2021
 Local
(UTC-5)
 Zulu
(UTC)
Morning civil twilight06:1011:10
Sunrise06:3811:38
Sunset20:3401:34
Evening civil twilight21:0202:02

Current date and time
Zulu (UTC)  05-Aug-2021 16:01:27
Local (UTC-5)  05-Aug-2021 11:01:27
 
METAR
KICT 
5nm NE 
051553Z 21011KT 9SM FEW090 FEW120 SCT180 29/18 A3006 RMK AO2 SLP165 T02890183
KIAB 
11nm E 
051556Z AUTO 23012KT 10SM FEW090 FEW180 FEW200 27/17 A3008 RMK AO2 SLP176 T02660174 $
KBEC 
15nm NE 
051535Z AUTO 22008KT 10SM CLR 26/17 A3007 RMK AO2 LTG DSNT E T02580172
KAAO 
17nm NE 
051554Z AUTO 22007KT 10SM CLR 27/17 A3008 RMK AO2 SLP170 T02670172
TAF
KICT 
5nm NE 
051126Z 0512/0612 18005KT P6SM SCT030 BKN100 FM052000 18010KT P6SM FEW060 SCT200 FM060400 16009KT P6SM FEW250
KIAB 
11nm E 
051000Z 0510/0616 18012KT 9999 SCT080 BKN180 QNH3004INS BECMG 0520/0521 17010KT 9999 FEW120 QNH2995INS BECMG 0614/0615 21015KT 9999 SKC QNH2996INS TX31/0520Z TN19/0610Z
NOTAMs
Click for the latest NOTAMs
NOTAMs are issued by the DoD/FAA and will open in a separate window not controlled by AirNav.

 

 
 

Would you like to see your business listed on this page?

 If your business provides an interesting product or service to pilots, flight crews, aircraft, or users of the Rucker Airport, you should consider listing it here.  To start the listing process, click on the button below
 
Add a business
 

Other Pages about Rucker Airport

Update a link
 
Copyright © AirNav, LLC. All rights reserved. Privacy Policy  Contact